Time;durP1;ratioP1;P1;durP2;ratioP2;P2;SDS_P1;SDS_P2;PMS_P1;PMS_P2;Temp;Humidity;BMP_temperature;BMP_pressure;BME280_temperature;BME280_humidity;BME280_pressure;Samples;Min_cycle;Max_cycle;Signal;HPM_P1;HPM_P2
2021/09/10 00:01:58;;;;;;;11.45;10.27;;;22.60;99.90;;;;;;5109247;28;20528;-39
2021/09/10 00:04:24;;;;;;;11.10;10.02;;;22.60;99.90;;;;;;5109840;28;20019;-39
2021/09/10 00:06:50;;;;;;;11.60;10.30;;;22.50;99.90;;;;;;5109318;28;20030;-36
2021/09/10 00:09:17;;;;;;;11.15;9.95;;;22.50;99.90;;;;;;5110130;28;20708;-37
2021/09/10 00:11:43;;;;;;;10.23;9.23;;;22.50;99.90;;;;;;5109374;28;20016;-34
2021/09/10 00:14:08;;;;;;;13.63;10.35;;;22.50;99.90;;;;;;5109496;28;20111;-39
2021/09/10 00:16:34;;;;;;;10.98;9.93;;;22.40;99.90;;;;;;5109063;28;20042;-37
2021/09/10 00:18:59;;;;;;;12.27;9.63;;;22.40;99.90;;;;;;5108658;28;20039;-38
2021/09/10 00:21:25;;;;;;;11.05;9.95;;;22.30;99.90;;;;;;5110307;28;20022;-38
2021/09/10 00:23:50;;;;;;;11.15;10.05;;;22.30;99.90;;;;;;5109213;28;20387;-39
2021/09/10 00:26:16;;;;;;;9.80;8.88;;;22.30;99.90;;;;;;5109588;28;20463;-36
2021/09/10 00:28:44;;;;;;;10.57;9.57;;;22.20;99.90;;;;;;5109018;28;20043;-36
2021/09/10 00:31:10;;;;;;;11.43;10.20;;;22.20;99.90;;;;;;5109824;28;20028;-36
2021/09/10 00:33:35;;;;;;;10.60;9.60;;;22.20;99.90;;;;;;5109940;28;20081;-37
2021/09/10 00:36:01;;;;;;;10.93;9.88;;;22.10;99.90;;;;;;5113176;28;20072;-40
2021/09/10 00:38:27;;;;;;;11.13;10.02;;;22.00;99.90;;;;;;5113423;28;20451;-39
2021/09/10 00:40:53;;;;;;;11.00;9.85;;;22.00;99.90;;;;;;5112428;28;20554;-40
2021/09/10 00:43:19;;;;;;;10.05;9.05;;;21.90;99.90;;;;;;5113100;28;20023;-36
2021/09/10 00:45:46;;;;;;;11.02;9.40;;;21.90;99.90;;;;;;5113027;28;20020;-39
2021/09/10 00:48:13;;;;;;;11.55;9.40;;;21.90;99.90;;;;;;5113114;28;20016;-35
2021/09/10 00:50:40;;;;;;;11.30;10.23;;;21.80;99.90;;;;;;5113538;28;20020;-37
2021/09/10 00:53:05;;;;;;;11.60;10.48;;;21.80;99.90;;;;;;5111693;28;20016;-39
2021/09/10 00:55:32;;;;;;;11.82;10.68;;;21.90;99.90;;;;;;5112247;28;20038;-39
2021/09/10 00:58:01;;;;;;;10.85;9.65;;;21.80;99.90;;;;;;5110843;28;20360;-36
2021/09/10 01:00:26;;;;;;;10.82;9.82;;;21.80;99.90;;;;;;5089719;28;20080;-37
2021/09/10 01:02:52;;;;;;;10.77;9.68;;;21.80;99.90;;;;;;5110773;28;20285;-37
2021/09/10 01:05:18;;;;;;;10.68;9.57;;;21.80;99.90;;;;;;5112373;28;20099;-36
2021/09/10 01:07:45;;;;;;;11.32;10.20;;;21.70;99.90;;;;;;5111959;28;20030;-39
2021/09/10 01:10:11;;;;;;;11.93;10.73;;;21.70;99.90;;;;;;5109530;28;20024;-38
2021/09/10 01:12:37;;;;;;;12.90;11.55;;;21.70;99.90;;;;;;5112475;28;20039;-36
2021/09/10 01:15:03;;;;;;;12.68;11.38;;;21.70;99.90;;;;;;5111059;28;20047;-38
2021/09/10 01:17:29;;;;;;;13.10;11.70;;;21.70;99.90;;;;;;5112490;28;20034;-36
2021/09/10 01:19:54;;;;;;;12.73;11.52;;;21.60;99.90;;;;;;5104862;28;20028;-43
2021/09/10 01:22:20;;;;;;;12.77;11.43;;;21.70;99.90;;;;;;5110979;28;20024;-35
2021/09/10 01:25:06;;;;;;;12.93;11.38;;;21.70;99.90;;;;;;5111961;28;20378;-39
2021/09/10 01:27:32;;;;;;;12.20;11.00;;;21.70;99.90;;;;;;5112941;28;20023;-36
2021/09/10 01:29:58;;;;;;;12.10;10.85;;;21.70;99.90;;;;;;5110799;28;20046;-38
2021/09/10 01:32:24;;;;;;;12.13;11.02;;;21.70;99.90;;;;;;5111567;28;20480;-35
2021/09/10 01:34:50;;;;;;;13.30;12.00;;;21.60;99.90;;;;;;5109436;28;20024;-36
2021/09/10 01:37:17;;;;;;;12.65;11.45;;;21.60;99.90;;;;;;5110964;28;20034;-40
2021/09/10 01:39:42;;;;;;;12.77;11.20;;;21.70;99.90;;;;;;5109340;28;20090;-37
2021/09/10 01:42:08;;;;;;;13.93;12.38;;;21.70;99.90;;;;;;5109638;28;20485;-37
2021/09/10 01:44:33;;;;;;;13.90;12.25;;;21.70;99.90;;;;;;5112444;28;20073;-37
2021/09/10 01:46:59;;;;;;;13.00;11.70;;;21.80;99.90;;;;;;5110872;28;20363;-40
2021/09/10 01:49:26;;;;;;;13.80;12.40;;;21.80;99.90;;;;;;5111613;28;20092;-37
2021/09/10 01:51:51;;;;;;;14.15;12.35;;;21.70;99.90;;;;;;5111485;28;20027;-39
2021/09/10 01:54:16;;;;;;;12.52;11.20;;;21.70;99.90;;;;;;5111687;28;20019;-39
2021/09/10 01:56:42;;;;;;;13.68;12.27;;;21.70;99.90;;;;;;5102441;28;20038;-37
2021/09/10 01:59:07;;;;;;;12.38;10.80;;;21.60;99.90;;;;;;5111510;28;20538;-40
2021/09/10 02:01:34;;;;;;;12.55;11.27;;;21.60;99.90;;;;;;5110875;28;20024;-39
2021/09/10 02:04:00;;;;;;;12.90;11.15;;;21.60;99.90;;;;;;5110118;28;20023;-34
2021/09/10 02:06:26;;;;;;;13.73;12.32;;;21.50;99.90;;;;;;5110066;28;20024;-37
2021/09/10 02:08:54;;;;;;;13.82;12.43;;;21.50;99.90;;;;;;5109257;28;20023;-39
2021/09/10 02:11:20;;;;;;;12.23;11.02;;;21.50;99.90;;;;;;5109776;28;20024;-35
2021/09/10 02:13:45;;;;;;;13.93;11.85;;;21.40;99.90;;;;;;5110018;28;20055;-39
2021/09/10 02:16:11;;;;;;;13.18;11.48;;;21.40;99.90;;;;;;5110858;28;20020;-37
2021/09/10 02:18:38;;;;;;;13.13;11.02;;;21.40;99.90;;;;;;5109508;28;20031;-38
2021/09/10 02:21:04;;;;;;;13.32;11.95;;;21.40;99.90;;;;;;5109828;28;20039;-33
2021/09/10 02:23:29;;;;;;;13.30;10.93;;;21.40;99.90;;;;;;5109941;28;20069;-31
2021/09/10 02:26:01;;;;;;;13.18;11.95;;;21.30;99.90;;;;;;5109957;28;20497;-38
2021/09/10 02:28:27;;;;;;;12.38;11.07;;;21.30;99.90;;;;;;5090381;28;20042;-36
2021/09/10 02:30:53;;;;;;;14.32;12.23;;;21.30;99.90;;;;;;5110295;28;20394;-37
2021/09/10 02:33:18;;;;;;;13.65;12.15;;;21.30;99.90;;;;;;5110490;28;20026;-38
2021/09/10 02:35:44;;;;;;;13.50;11.88;;;21.30;99.90;;;;;;5110869;28;20083;-37
2021/09/10 02:38:10;;;;;;;13.40;12.10;;;21.20;99.90;;;;;;5110254;28;20033;-38
2021/09/10 02:40:36;;;;;;;12.90;11.60;;;21.20;99.90;;;;;;5111467;28;20021;-36
2021/09/10 02:43:01;;;;;;;13.55;12.15;;;21.20;99.90;;;;;;5109584;28;20023;-36
2021/09/10 02:45:27;;;;;;;12.80;11.52;;;21.20;99.90;;;;;;5110692;28;20050;-38
2021/09/10 02:47:53;;;;;;;12.45;11.23;;;21.20;99.90;;;;;;5110353;28;20118;-37
2021/09/10 02:50:18;;;;;;;13.48;11.18;;;21.20;99.90;;;;;;5110633;28;20446;-36
2021/09/10 02:52:44;;;;;;;12.73;11.43;;;21.20;99.90;;;;;;5110119;28;20019;-37
2021/09/10 02:55:10;;;;;;;12.82;11.52;;;21.20;99.90;;;;;;5091947;28;20039;-38
2021/09/10 02:57:41;;;;;;;14.18;12.00;;;21.10;99.90;;;;;;5110510;28;20008;-34
2021/09/10 03:00:07;;;;;;;13.48;11.73;;;21.10;99.90;;;;;;5109517;28;20038;-37
2021/09/10 03:02:36;;;;;;;13.00;11.60;;;21.10;99.90;;;;;;5110547;28;20024;-34
2021/09/10 03:05:01;;;;;;;12.30;11.02;;;21.10;99.90;;;;;;5110658;28;20043;-39
2021/09/10 03:07:27;;;;;;;13.10;11.80;;;21.10;99.90;;;;;;5109839;28;20477;-34
2021/09/10 03:09:53;;;;;;;13.90;10.93;;;21.00;99.90;;;;;;5109690;28;20344;-39
2021/09/10 03:12:18;;;;;;;11.55;10.43;;;21.00;99.90;;;;;;5109778;28;20106;-38
2021/09/10 03:14:44;;;;;;;11.90;10.70;;;21.00;99.90;;;;;;5108168;28;20121;-35
2021/09/10 03:17:09;;;;;;;12.38;11.07;;;20.90;99.90;;;;;;5108635;28;20029;-33
2021/09/10 03:19:35;;;;;;;11.20;10.20;;;20.90;99.90;;;;;;5108557;28;20107;-38
2021/09/10 03:22:00;;;;;;;11.10;9.98;;;20.90;99.90;;;;;;5107868;28;20016;-38
2021/09/10 03:24:26;;;;;;;10.55;9.52;;;20.80;99.90;;;;;;5110250;28;20039;-39
2021/09/10 03:26:51;;;;;;;11.98;9.68;;;20.80;99.90;;;;;;5108988;28;20538;-38
2021/09/10 03:29:17;;;;;;;10.25;9.30;;;20.80;99.90;;;;;;5109827;28;20034;-37
2021/09/10 03:31:46;;;;;;;11.07;9.98;;;20.80;99.90;;;;;;5109666;28;20012;-35
2021/09/10 03:34:11;;;;;;;10.90;9.88;;;20.80;99.90;;;;;;5108699;28;20023;-37
2021/09/10 03:36:40;;;;;;;13.02;10.18;;;20.80;99.90;;;;;;5109059;28;20038;-35
2021/09/10 03:39:08;;;;;;;10.43;8.98;;;20.80;99.90;;;;;;5109864;28;20563;-39
2021/09/10 03:41:34;;;;;;;10.82;9.38;;;20.80;99.90;;;;;;5109657;28;20020;-36
2021/09/10 03:44:00;;;;;;;10.05;9.05;;;20.80;99.90;;;;;;5109340;28;20081;-38
2021/09/10 03:46:25;;;;;;;10.20;9.20;;;20.70;99.90;;;;;;5109960;28;20030;-39
2021/09/10 03:48:51;;;;;;;10.93;9.82;;;20.70;99.90;;;;;;5109179;28;20027;-34
2021/09/10 03:51:17;;;;;;;10.20;8.50;;;20.70;99.90;;;;;;5110307;28;20382;-39
2021/09/10 03:53:45;;;;;;;10.80;9.65;;;20.60;99.90;;;;;;5109077;28;20379;-36
2021/09/10 03:56:17;;;;;;;9.77;8.77;;;20.60;99.90;;;;;;5108972;28;20038;-37
2021/09/10 03:58:44;;;;;;;10.55;9.57;;;20.60;99.90;;;;;;5109100;28;20035;-36
2021/09/10 04:01:10;;;;;;;11.68;9.27;;;20.50;99.90;;;;;;5110057;28;20024;-39
2021/09/10 04:03:35;;;;;;;9.50;8.52;;;20.50;99.90;;;;;;5109749;28;20020;-39
2021/09/10 04:06:00;;;;;;;9.98;8.98;;;20.50;99.90;;;;;;5109427;28;20030;-37
2021/09/10 04:08:26;;;;;;;10.43;8.90;;;20.40;99.90;;;;;;5110561;28;20089;-37
2021/09/10 04:10:51;;;;;;;9.68;8.52;;;20.40;99.90;;;;;;5112765;28;20027;-38
2021/09/10 04:13:17;;;;;;;9.73;8.82;;;20.50;99.90;;;;;;5114253;28;20047;-39
2021/09/10 04:15:45;;;;;;;9.65;8.68;;;20.40;99.90;;;;;;5113437;28;20070;-38
2021/09/10 04:18:11;;;;;;;10.05;9.05;;;20.50;99.90;;;;;;5113536;28;20023;-38
2021/09/10 04:20:36;;;;;;;9.50;8.55;;;20.40;99.90;;;;;;5113153;28;20020;-39
2021/09/10 04:23:02;;;;;;;10.75;9.40;;;20.40;99.90;;;;;;5111712;28;20524;-36
2021/09/10 04:25:28;;;;;;;10.23;9.23;;;20.40;99.90;;;;;;5111665;28;20011;-36
2021/09/10 04:27:54;;;;;;;10.30;8.88;;;20.40;99.90;;;;;;5112522;28;20023;-38
2021/09/10 04:30:20;;;;;;;9.38;8.55;;;20.40;99.90;;;;;;5112158;28;20077;-39
2021/09/10 04:32:46;;;;;;;9.05;8.15;;;20.40;99.90;;;;;;5111690;28;20043;-35
2021/09/10 04:35:14;;;;;;;8.63;7.82;;;20.40;99.90;;;;;;5113322;28;20058;-37
2021/09/10 04:37:46;;;;;;;8.30;7.50;;;20.30;99.90;;;;;;5112630;28;20030;-39
2021/09/10 04:40:12;;;;;;;;;;;20.30;99.90;;;;;;5113420;28;20039;-38
2021/09/10 04:42:38;;;;;;;8.13;7.32;;;20.30;99.90;;;;;;5111645;28;19953;-33
2021/09/10 04:45:04;;;;;;;8.50;7.68;;;20.20;99.90;;;;;;5111227;28;20367;-39
2021/09/10 04:47:30;;;;;;;8.20;7.40;;;20.20;99.90;;;;;;5113491;28;20164;-32
2021/09/10 04:49:56;;;;;;;9.50;8.65;;;20.30;99.90;;;;;;5113029;28;20019;-38
2021/09/10 04:52:21;;;;;;;8.07;7.28;;;20.20;99.90;;;;;;5112637;28;20019;-37
2021/09/10 04:54:47;;;;;;;8.82;7.88;;;20.30;99.90;;;;;;5113171;28;20035;-32
2021/09/10 04:57:15;;;;;;;9.40;8.40;;;20.20;99.90;;;;;;5112801;28;20475;-38
2021/09/10 04:59:42;;;;;;;9.25;8.45;;;20.30;99.90;;;;;;5112457;28;20050;-39
2021/09/10 05:02:08;;;;;;;9.75;8.20;;;20.20;99.90;;;;;;5113079;28;20040;-33
2021/09/10 05:04:33;;;;;;;8.57;7.78;;;20.30;99.90;;;;;;5113276;28;20059;-39
2021/09/10 05:06:59;;;;;;;9.48;7.82;;;20.30;99.90;;;;;;5111882;28;20110;-38
2021/09/10 05:09:24;;;;;;;8.18;7.40;;;20.30;99.90;;;;;;5113193;28;20355;-36
2021/09/10 05:11:49;;;;;;;10.65;9.07;;;20.30;99.90;;;;;;5112258;28;20016;-37
2021/09/10 05:14:15;;;;;;;8.73;7.80;;;20.30;99.90;;;;;;5112386;28;20515;-39
2021/09/10 05:16:41;;;;;;;8.70;7.57;;;20.20;99.90;;;;;;5112423;28;20020;-34
2021/09/10 05:19:09;;;;;;;7.60;6.90;;;20.20;99.90;;;;;;5112921;28;20024;-37
2021/09/10 05:21:35;;;;;;;7.68;6.97;;;20.20;99.90;;;;;;5077368;28;20008;-38
2021/09/10 05:24:01;;;;;;;7.95;7.18;;;20.20;99.90;;;;;;5110686;28;20034;-38
2021/09/10 05:26:26;;;;;;;7.25;6.47;;;20.20;99.90;;;;;;5111224;28;20015;-39
2021/09/10 05:28:52;;;;;;;8.00;7.13;;;20.20;99.90;;;;;;5111081;28;20019;-40
2021/09/10 05:31:20;;;;;;;9.30;7.70;;;20.30;99.90;;;;;;5111133;28;20438;-38
2021/09/10 05:33:46;;;;;;;9.55;7.47;;;20.30;99.90;;;;;;5109513;28;20115;-40
2021/09/10 05:36:11;;;;;;;8.07;7.30;;;20.30;99.90;;;;;;5070548;28;20103;-34
2021/09/10 05:38:37;;;;;;;7.57;6.78;;;20.40;99.90;;;;;;5092952;28;20036;-33
2021/09/10 05:41:02;;;;;;;8.45;7.57;;;20.40;99.90;;;;;;5109156;28;20012;-37
2021/09/10 05:43:28;;;;;;;10.18;6.80;;;20.50;99.90;;;;;;5088840;28;20638;-38
2021/09/10 05:45:53;;;;;;;8.85;7.75;;;20.60;99.90;;;;;;5103113;28;20442;-35
2021/09/10 05:48:19;;;;;;;9.23;7.50;;;20.60;99.90;;;;;;5110193;28;20030;-37
2021/09/10 05:50:49;;;;;;;8.43;7.50;;;20.80;99.90;;;;;;5110724;28;20455;-38
2021/09/10 05:53:15;;;;;;;8.15;7.35;;;20.90;99.90;;;;;;5109993;28;20130;-38
2021/09/10 05:55:41;;;;;;;7.68;6.78;;;20.90;99.90;;;;;;5101405;28;20103;-38
2021/09/10 05:58:07;;;;;;;7.80;7.00;;;20.90;99.90;;;;;;5096333;28;20012;-38
2021/09/10 06:00:33;;;;;;;8.07;7.05;;;20.90;99.90;;;;;;5110549;28;20035;-39
2021/09/10 06:02:59;;;;;;;9.63;8.50;;;21.00;99.90;;;;;;5109997;28;20024;-38
2021/09/10 06:05:24;;;;;;;7.18;6.40;;;21.00;99.90;;;;;;5110880;28;20390;-39
2021/09/10 06:07:50;;;;;;;8.88;7.97;;;21.00;99.90;;;;;;5110306;28;20428;-37
2021/09/10 06:10:18;;;;;;;9.13;8.23;;;21.00;99.90;;;;;;5107515;28;20015;-39
2021/09/10 06:12:44;;;;;;;8.35;7.45;;;21.00;99.90;;;;;;5079848;28;20035;-38
2021/09/10 06:15:10;;;;;;;9.93;8.52;;;21.00;99.90;;;;;;5093464;28;20043;-33
2021/09/10 06:17:36;;;;;;;8.55;7.72;;;21.10;99.90;;;;;;5072197;28;20020;-37
2021/09/10 06:20:02;;;;;;;8.05;7.25;;;21.10;99.90;;;;;;5103070;28;20032;-38
2021/09/10 06:22:28;;;;;;;9.63;6.95;;;21.20;99.90;;;;;;5110471;28;20055;-39
2021/09/10 06:24:54;;;;;;;7.82;6.25;;;21.20;99.90;;;;;;5108541;28;20098;-39
2021/09/10 06:27:19;;;;;;;8.30;7.10;;;21.20;99.90;;;;;;5109591;28;20038;-37
2021/09/10 06:29:45;;;;;;;9.73;8.20;;;21.20;99.90;;;;;;5108077;28;20020;-37
2021/09/10 06:32:10;;;;;;;9.00;7.18;;;21.20;99.90;;;;;;5102011;28;20047;-34
2021/09/10 06:34:36;;;;;;;7.82;7.05;;;21.30;99.90;;;;;;5098607;28;20067;-40
2021/09/10 06:37:02;;;;;;;8.75;6.80;;;21.30;99.90;;;;;;5110129;28;20110;-38
2021/09/10 06:39:28;;;;;;;7.35;6.60;;;21.30;99.90;;;;;;5109995;28;20032;-42
2021/09/10 06:41:56;;;;;;;6.95;6.18;;;21.30;99.90;;;;;;5109584;28;20053;-40
2021/09/10 06:44:21;;;;;;;7.35;6.63;;;21.30;99.90;;;;;;5091108;28;20036;-42
2021/09/10 06:46:47;;;;;;;7.85;6.85;;;21.30;99.90;;;;;;5082759;28;20490;-43
2021/09/10 06:49:13;;;;;;;7.32;6.63;;;21.40;99.90;;;;;;5089208;28;20412;-41
2021/09/10 06:51:38;;;;;;;8.63;7.63;;;21.40;99.90;;;;;;5109927;28;20020;-38
2021/09/10 06:54:04;;;;;;;9.15;8.25;;;21.50;99.90;;;;;;5110512;28;20035;-40
2021/09/10 06:56:29;;;;;;;9.40;7.80;;;21.50;99.90;;;;;;5110600;28;20028;-37
2021/09/10 06:58:55;;;;;;;8.27;7.47;;;21.40;99.90;;;;;;5108630;28;20118;-38
2021/09/10 07:01:20;;;;;;;8.38;7.57;;;21.40;99.90;;;;;;5111231;28;20466;-40
2021/09/10 07:03:46;;;;;;;8.52;7.68;;;21.40;99.90;;;;;;5110137;28;20482;-39
2021/09/10 07:06:11;;;;;;;9.57;8.02;;;21.50;99.90;;;;;;5110336;28;20031;-39
2021/09/10 07:08:37;;;;;;;9.07;8.18;;;21.50;99.90;;;;;;5110392;28;20055;-36
2021/09/10 07:11:03;;;;;;;8.18;7.38;;;21.50;99.90;;;;;;5109965;28;20081;-39
2021/09/10 07:13:29;;;;;;;8.32;7.53;;;21.50;99.90;;;;;;5109836;28;20044;-38
2021/09/10 07:15:55;;;;;;;7.32;6.63;;;21.60;99.90;;;;;;5108227;28;20110;-31
2021/09/10 07:18:20;;;;;;;7.70;6.90;;;21.60;99.90;;;;;;5108949;28;20106;-35
2021/09/10 07:20:47;;;;;;;9.32;7.72;;;21.60;99.90;;;;;;5109356;28;20024;-38
2021/09/10 07:23:13;;;;;;;8.20;7.38;;;21.60;99.90;;;;;;5088215;28;20023;-36
2021/09/10 07:25:39;;;;;;;8.20;7.40;;;21.60;99.90;;;;;;5109629;28;20024;-39
2021/09/10 07:28:04;;;;;;;7.85;7.05;;;21.60;99.90;;;;;;5109289;28;20092;-36
2021/09/10 07:30:30;;;;;;;8.85;7.28;;;21.60;99.90;;;;;;5110085;28;20032;-39
2021/09/10 07:32:55;;;;;;;10.27;7.53;;;21.70;99.90;;;;;;5109613;28;20012;-42
2021/09/10 07:35:21;;;;;;;7.90;7.03;;;21.70;99.90;;;;;;5109812;28;20019;-37
2021/09/10 07:37:48;;;;;;;8.18;7.28;;;21.70;99.90;;;;;;5109038;28;20012;-38
2021/09/10 07:40:15;;;;;;;8.40;7.45;;;21.70;99.90;;;;;;5110499;28;20502;-41
2021/09/10 07:42:42;;;;;;;11.38;7.80;;;21.80;99.90;;;;;;5109664;28;20020;-40
2021/09/10 07:45:09;;;;;;;8.25;7.45;;;21.70;99.90;;;;;;5108536;28;20019;-38
2021/09/10 07:47:34;;;;;;;6.30;5.70;;;21.80;99.90;;;;;;5108469;28;20055;-39
2021/09/10 07:50:00;;;;;;;6.90;6.28;;;21.80;99.90;;;;;;5106527;28;20458;-39
2021/09/10 07:52:26;;;;;;;7.90;7.13;;;21.90;99.90;;;;;;5098751;28;20023;-42
2021/09/10 07:54:51;;;;;;;7.07;6.05;;;21.90;99.90;;;;;;5107743;28;20026;-39
2021/09/10 07:57:17;;;;;;;7.75;7.00;;;22.00;99.90;;;;;;5109023;28;20153;-34
2021/09/10 07:59:43;;;;;;;9.27;8.32;;;22.10;99.90;;;;;;5108025;28;20066;-39
2021/09/10 08:02:08;;;;;;;7.22;6.53;;;22.10;99.90;;;;;;5106662;28;20020;-40
2021/09/10 08:04:34;;;;;;;8.32;7.53;;;22.20;99.90;;;;;;5102314;28;20050;-38
2021/09/10 08:06:59;;;;;;;7.55;6.63;;;22.20;99.90;;;;;;5080516;28;20581;-41
2021/09/10 08:09:25;;;;;;;7.15;6.43;;;22.30;99.90;;;;;;5107425;28;20020;-38
2021/09/10 08:11:50;;;;;;;8.02;7.22;;;22.30;99.90;;;;;;5106729;28;20356;-41
2021/09/10 08:14:17;;;;;;;7.15;6.45;;;22.40;99.90;;;;;;5104000;28;20136;-42
2021/09/10 08:16:42;;;;;;;9.07;7.93;;;22.50;99.90;;;;;;5086127;28;20054;-39
2021/09/10 08:19:08;;;;;;;9.07;8.02;;;22.50;99.90;;;;;;5103519;28;20394;-42
2021/09/10 08:21:34;;;;;;;9.65;7.60;;;22.40;99.90;;;;;;5109069;28;20031;-37
2021/09/10 08:23:59;;;;;;;8.43;6.93;;;22.40;99.90;;;;;;5108683;28;20023;-39
2021/09/10 08:26:25;;;;;;;8.73;7.13;;;22.40;99.90;;;;;;5109667;28;20016;-42
2021/09/10 08:28:50;;;;;;;9.68;8.65;;;22.30;99.90;;;;;;5109275;28;20019;-40
2021/09/10 08:31:16;;;;;;;8.57;6.68;;;22.40;99.90;;;;;;5109885;28;20085;-37
2021/09/10 08:33:42;;;;;;;7.43;6.72;;;22.40;99.90;;;;;;5107035;28;20042;-41
2021/09/10 08:36:07;;;;;;;8.07;7.15;;;22.50;99.90;;;;;;5106046;28;20515;-40
2021/09/10 08:38:33;;;;;;;8.38;7.57;;;22.50;99.90;;;;;;5109290;28;20020;-39
2021/09/10 08:41:01;;;;;;;9.18;8.27;;;22.50;99.90;;;;;;5109314;28;20028;-39
2021/09/10 08:43:27;;;;;;;10.13;8.73;;;22.50;99.90;;;;;;5094200;28;20062;-40
2021/09/10 08:45:57;;;;;;;9.75;8.27;;;22.50;99.90;;;;;;5097412;28;20055;-40
2021/09/10 08:48:24;;;;;;;8.93;6.40;;;22.60;99.90;;;;;;5097777;28;20039;-41
2021/09/10 08:50:50;;;;;;;7.32;6.57;;;22.50;99.90;;;;;;5108744;28;20027;-40
2021/09/10 08:53:16;;;;;;;8.60;6.78;;;22.60;99.90;;;;;;5084570;28;20029;-37
2021/09/10 08:55:43;;;;;;;11.15;8.93;;;22.70;99.90;;;;;;5110429;28;20046;-38
2021/09/10 08:58:09;;;;;;;7.90;7.10;;;22.70;99.90;;;;;;5100694;28;20035;-40
2021/09/10 09:00:36;;;;;;;8.52;7.57;;;22.80;99.90;;;;;;5099304;28;20039;-40
2021/09/10 09:03:07;;;;;;;7.85;6.50;;;22.80;99.90;;;;;;5083502;28;20486;-41
2021/09/10 09:05:33;;;;;;;7.75;6.53;;;22.90;99.90;;;;;;5093044;28;20150;-39
2021/09/10 09:08:15;;;;;;;7.57;6.68;;;22.90;99.90;;;;;;5111760;28;20019;-41
2021/09/10 09:11:05;;;;;;;7.95;6.53;;;23.00;99.90;;;;;;5103573;28;20026;-38
2021/09/10 09:13:39;;;;;;;7.88;7.07;;;23.10;99.90;;;;;;5070632;28;20040;-38
2021/09/10 09:16:30;;;;;;;6.88;6.18;;;23.10;99.90;;;;;;5108221;28;20032;-40
2021/09/10 09:18:58;;;;;;;8.90;7.20;;;23.20;99.90;;;;;;5112197;28;20140;-40
2021/09/10 09:21:28;;;;;;;8.65;7.75;;;23.30;99.90;;;;;;5111537;28;20064;-40
2021/09/10 09:23:58;;;;;;;10.98;7.90;;;23.20;99.90;;;;;;5112121;28;20072;-38
2021/09/10 09:26:28;;;;;;;9.63;8.70;;;23.20;99.90;;;;;;5112652;28;20027;-41
2021/09/10 09:29:03;;;;;;;10.63;9.52;;;23.20;99.90;;;;;;5112170;28;20023;-38
2021/09/10 09:31:29;;;;;;;7.70;6.90;;;23.20;99.90;;;;;;5112492;28;20027;-41
2021/09/10 09:33:55;;;;;;;7.28;6.55;;;23.20;99.90;;;;;;5111635;28;20031;-38
2021/09/10 09:36:21;;;;;;;6.63;5.93;;;23.30;99.90;;;;;;5096692;28;20052;-37
2021/09/10 09:38:46;;;;;;;6.60;5.72;;;23.40;99.90;;;;;;5087931;28;20043;-41
2021/09/10 09:41:18;;;;;;;7.75;6.10;;;23.50;99.90;;;;;;5101618;28;20060;-38
2021/09/10 09:43:49;;;;;;;8.27;5.78;;;23.60;99.90;;;;;;5111296;28;20020;-41
2021/09/10 09:46:18;;;;;;;6.78;6.07;;;23.70;99.90;;;;;;5111381;28;20050;-38
2021/09/10 09:48:49;;;;;;;6.30;5.70;;;23.80;99.90;;;;;;5110269;28;20034;-39
2021/09/10 09:51:18;;;;;;;7.03;6.28;;;23.90;99.90;;;;;;5112272;28;20112;-39
2021/09/10 09:53:45;;;;;;;5.78;5.28;;;24.00;99.90;;;;;;5100024;28;20020;-36
2021/09/10 09:56:11;;;;;;;5.43;4.90;;;24.10;99.90;;;;;;5087704;28;20374;-40
2021/09/10 09:58:38;;;;;;;7.63;5.80;;;24.20;99.90;;;;;;5111833;28;20834;-38
2021/09/10 10:01:05;;;;;;;6.30;5.70;;;24.40;99.90;;;;;;5111055;28;20020;-41
2021/09/10 10:03:31;;;;;;;5.72;5.00;;;24.50;99.90;;;;;;5110787;28;20020;-37
2021/09/10 10:06:02;;;;;;;6.32;4.35;;;24.50;99.90;;;;;;5109492;28;20081;-38
2021/09/10 10:09:00;;;;;;;5.88;3.90;;;24.60;99.90;;;;;;5096443;28;20023;-38
2021/09/10 10:11:37;;;;;;;5.28;4.28;;;24.80;99.90;;;;;;5080615;28;20030;-38
2021/09/10 10:14:06;;;;;;;6.60;4.70;;;24.90;99.90;;;;;;5088779;28;20039;-42
2021/09/10 10:16:38;;;;;;;7.18;5.05;;;24.90;99.90;;;;;;5110134;28;20023;-39
2021/09/10 10:19:08;;;;;;;6.20;5.25;;;25.00;99.90;;;;;;5110193;28;20031;-38
2021/09/10 10:21:55;;;;;;;5.90;4.25;;;25.10;99.90;;;;;;5110344;28;20067;-37
2021/09/10 10:24:42;;;;;;;7.35;5.00;;;25.10;99.90;;;;;;5089808;28;20038;-40
2021/09/10 10:27:31;;;;;;;7.32;5.53;;;25.10;99.90;;;;;;5110879;28;20364;-39
2021/09/10 10:29:58;;;;;;;5.85;5.10;;;25.10;99.90;;;;;;5108315;28;20031;-40
2021/09/10 10:32:37;;;;;;;5.07;4.40;;;25.00;99.90;;;;;;5111335;28;20012;-38
2021/09/10 10:35:21;;;;;;;8.43;5.20;;;25.00;99.90;;;;;;5111631;28;20043;-42
2021/09/10 10:37:52;;;;;;;6.97;4.53;;;25.10;99.90;;;;;;5110102;28;20059;-42
2021/09/10 10:40:31;;;;;;;6.03;5.22;;;25.10;99.90;;;;;;5110711;28;20039;-37
2021/09/10 10:43:00;;;;;;;5.65;5.00;;;25.10;99.90;;;;;;5110595;28;20045;-36
2021/09/10 10:45:46;;;;;;;7.88;5.30;;;25.10;99.90;;;;;;5110618;28;20520;-37
2021/09/10 10:48:31;;;;;;;6.60;4.88;;;25.00;99.90;;;;;;5110362;28;20386;-38
2021/09/10 10:51:20;;;;;;;7.65;5.55;;;25.00;99.90;;;;;;5109704;28;20031;-37
2021/09/10 10:53:45;;;;;;;6.10;4.47;;;25.00;99.90;;;;;;5082480;28;20093;-35
2021/09/10 10:56:32;;;;;;;7.97;6.03;;;25.00;99.90;;;;;;5103500;28;20028;-39
2021/09/10 10:59:12;;;;;;;7.75;5.45;;;25.10;99.90;;;;;;5100970;28;20036;-39
2021/09/10 11:02:22;;;;;;;6.15;5.28;;;25.20;99.90;;;;;;5105456;28;20035;-37
2021/09/10 11:04:50;;;;;;;7.55;5.88;;;25.20;99.70;;;;;;5108637;28;20331;-39
2021/09/10 11:07:20;;;;;;;8.07;5.20;;;25.20;99.80;;;;;;5089536;28;20040;-39
2021/09/10 11:10:11;;;;;;;7.05;5.35;;;25.20;99.70;;;;;;5092292;28;20391;-41
2021/09/10 11:12:39;;;;;;;5.57;4.28;;;25.20;99.50;;;;;;5082958;28;20476;-35
2021/09/10 11:15:21;;;;;;;4.60;3.90;;;25.20;99.80;;;;;;5103403;28;20054;-39
2021/09/10 11:17:55;;;;;;;5.50;4.28;;;25.30;99.50;;;;;;5067578;28;20071;-40
2021/09/10 11:20:26;;;;;;;6.05;4.13;;;25.50;99.30;;;;;;5105730;28;20122;-41
2021/09/10 11:22:52;;;;;;;4.50;3.65;;;25.40;99.10;;;;;;5109993;28;20095;-40
2021/09/10 11:25:17;;;;;;;3.90;3.17;;;25.40;99.10;;;;;;5110317;28;20354;-41
2021/09/10 11:27:43;;;;;;;4.13;3.20;;;25.40;99.30;;;;;;5107424;28;20055;-37
2021/09/10 11:30:11;;;;;;;4.00;3.53;;;25.40;99.20;;;;;;5098389;28;20034;-38
2021/09/10 11:32:40;;;;;;;3.50;3.20;;;25.40;99.30;;;;;;5109622;28;20390;-39
2021/09/10 11:35:22;;;;;;;4.03;3.63;;;25.40;99.20;;;;;;5108443;28;20034;-41
2021/09/10 11:38:04;;;;;;;3.80;3.50;;;25.40;99.20;;;;;;5110270;28;20479;-41
2021/09/10 11:40:31;;;;;;;;;;;25.30;99.30;;;;;;5106688;28;20073;-37
2021/09/10 11:43:02;;;;;;;3.97;3.50;;;25.30;99.40;;;;;;5108798;28;19912;-37
2021/09/10 11:45:30;;;;;;;5.50;4.43;;;25.30;99.50;;;;;;5109384;28;20022;-38
2021/09/10 11:47:56;;;;;;;5.63;4.03;;;25.20;99.30;;;;;;5108137;28;20027;-37
2021/09/10 11:50:22;;;;;;;4.35;3.75;;;25.20;99.40;;;;;;5108184;28;20019;-38
2021/09/10 11:52:47;;;;;;;4.40;4.00;;;25.20;99.40;;;;;;5102576;28;20031;-39
2021/09/10 11:55:15;;;;;;;3.63;3.30;;;25.20;99.50;;;;;;5109292;28;20473;-41
2021/09/10 11:57:42;;;;;;;6.78;4.30;;;25.20;99.60;;;;;;5109774;28;20391;-39
2021/09/10 12:00:23;;;;;;;4.88;3.95;;;25.20;99.50;;;;;;5109440;28;20382;-36
2021/09/10 12:02:56;;;;;;;6.37;3.93;;;25.20;99.50;;;;;;5108392;28;20110;-41
2021/09/10 12:05:22;;;;;;;5.10;4.13;;;25.20;99.60;;;;;;5109766;28;20097;-38
2021/09/10 12:07:51;;;;;;;6.60;4.32;;;25.20;99.60;;;;;;5109344;28;20032;-41
2021/09/10 12:10:34;;;;;;;5.97;4.30;;;25.10;99.50;;;;;;5109555;28;20031;-42
2021/09/10 12:13:13;;;;;;;4.47;4.03;;;25.10;99.50;;;;;;5087109;28;20106;-39
2021/09/10 12:15:41;;;;;;;5.15;3.90;;;25.00;99.50;;;;;;5108479;28;20036;-39
2021/09/10 12:18:13;;;;;;;4.60;4.00;;;25.00;99.80;;;;;;5087275;28;20024;-38
2021/09/10 12:20:39;;;;;;;4.20;3.67;;;24.90;99.60;;;;;;5076704;28;20131;-38
2021/09/10 12:23:06;;;;;;;4.22;3.67;;;24.80;99.70;;;;;;5107002;28;20464;-41
2021/09/10 12:25:40;;;;;;;6.45;4.57;;;24.70;99.80;;;;;;5108449;28;20027;-39
2021/09/10 12:28:10;;;;;;;5.85;3.90;;;24.60;99.80;;;;;;5107801;28;20028;-40
2021/09/10 12:30:59;;;;;;;8.23;4.00;;;24.50;99.90;;;;;;5110030;28;20058;-37
2021/09/10 12:33:27;;;;;;;5.18;3.60;;;24.40;99.90;;;;;;5108532;28;20034;-36
2021/09/10 12:35:55;;;;;;;4.63;3.45;;;24.30;99.90;;;;;;5092684;28;20039;-41
2021/09/10 12:38:23;;;;;;;4.90;3.63;;;24.20;99.90;;;;;;5112237;28;20020;-39
2021/09/10 12:40:51;;;;;;;5.28;4.22;;;24.20;99.90;;;;;;5095340;28;20035;-40
2021/09/10 12:43:19;;;;;;;7.45;4.93;;;24.10;99.90;;;;;;5108475;28;20031;-41
2021/09/10 12:45:45;;;;;;;5.68;4.13;;;24.00;99.90;;;;;;5112877;28;20099;-39